WFLO2: Webbers Falls Lock & Dam & Reservoir (L&D 16)

Data processed at Fri Mar 09 2018 23:33


All information presented herein is the property of the government of the United States of America and may be revised or deleted at any time without prior notice.
Dissemination of this information without the expressed written consent of the Public Affairs Office, Tulsa District U.S. Army Corps of Engineers is strictly prohibited.
These data are gathered electronically and, as presented, have not undergone any form of quality control. These data are not guaranteed to be valid or correct.
Go to home page.
Go to station list.

Upstream stations:

Downstream station:
Previous Day
Next Day
Current Day
    
SHEF ID:       WFLO2     Webbers Falls Lock & Dam
STATION TYPE:  NAVIGATION LOCK
Normal Pool:  Bottom =   487.00, Top =   490.00

               PRECIP ELEVATION   STORAGE   TW-ELEV    INFLOW   RELEASE  AIR-TEMP  WIND-DIRWIND-SPEED REL-HUMID SOLAR-RAD   VOLTAGE  BAT-LOAD
                   in        ft     ac-ft        ft       cfs       cfs         F       deg       mph         %      W/m2      volt      volt
              Ccp-Rev   Ccp-Rev   Ccp-Rev   Ccp-Rev  Regi-Rev  Regi-Rev   Ccp-Rev   Ccp-Rev   Ccp-Rev   Ccp-Rev   Ccp-Rev   Ccp-Rev   Ccp-Rev
(US/Central)
03/07 00:00      0.00    489.80    167836    460.31     26450     25900     37.40    321.90      9.60     51.60      0.00     13.50     13.29
03/07 01:00      0.00    489.79    167722    460.36     26725     25900     35.92    323.10      8.50     54.99      0.00     13.50     13.29
03/07 02:00      0.00    489.80    167836    460.32     27001     25900     34.99    318.40      8.00     58.26      0.00     13.50     13.29
03/07 03:00      0.00    489.82    168063    460.35     26725     25900     34.14    323.10      7.30     60.15      0.00     13.50     13.29
03/07 04:00      0.00    489.83    168177    460.38     27551     25900     33.33    312.50      6.60     63.73      0.00     13.50     13.29
03/07 05:00      0.00    489.83    168177    460.39     28652     25900     32.14    320.10      5.30     66.16      0.00     13.50     13.29
03/07 06:00      0.00    489.85    168404    460.38     27751     25900     31.12    323.30      5.20     68.97      0.00     13.50     13.29
03/07 07:00      0.00    489.90    168973    460.30     27676     25900     30.27    327.20      5.50     70.35      0.00     13.50     13.29
03/07 08:00      0.00    489.88    168746    460.41     28426     26900     30.87    313.70      6.60     71.35     82.00     13.50     13.29
03/07 09:00      0.00    489.88    168746    460.54     23948     26900     32.54    327.50     10.20     65.17    324.30     13.50     13.29
03/07 10:00      0.00    489.90    168973    460.53     28551     26900     34.05    337.60     10.10     59.49    541.70     13.50     13.29
03/07 11:00      0.00    489.75    167267    460.23     32550     26900     35.33    332.20     10.30     56.55    741.60     13.50     13.29
03/07 12:00      0.00    489.96    169655    460.58     29927     26900     37.22    325.90     10.70     52.92    855.50     13.50     13.29
03/07 13:00      0.00    490.08    171080    460.66     32279     26900     39.67    326.60     11.70     48.31    923.50     13.50     13.05
03/07 14:00      0.00    489.99    169996    460.85     34282     26900     41.90    326.40     11.50     43.12    896.00     13.51     13.29
03/07 15:00      0.00    490.02    170353    461.00     28342     37100     44.13    328.30     11.10     40.11    791.30     13.51     13.29
03/07 16:00      0.00    489.87    168632    461.34     26580     37100     46.17    335.70      9.60     35.79    620.80     13.51     13.29
03/07 17:00      0.00    489.79    167722    461.47     32266     37100     47.07    330.20     10.00     34.83    406.60     13.51     13.29
03/07 18:00      0.00    489.71    166813    461.73     28299     46340     47.86    329.80      8.40     34.08    134.10     13.51     13.29
03/07 19:00      0.00    489.58    165335    461.79     31560     46340     46.58    312.60      2.30     36.88      0.00     13.51     13.29
03/07 20:00      0.00    489.50    164425    461.87     32857     46340     40.60      9.70      1.60     47.69      0.00     13.51     13.29
03/07 21:00      0.00    489.40    163288    461.90     35250     46340     36.84      4.00      2.10     64.30      0.00     13.51     13.29
03/07 22:00      0.00    489.30    162151    461.88     35374     46340     34.93      9.90      2.10     72.84      0.00     13.51     13.29
03/07 23:00      0.00    489.40    163288    461.38     39625     33540     31.33     39.30      0.80     74.03      0.00     13.50     13.29